sensor_id;sensor_type;location;lat;lon;timestamp;P1;durP1;ratioP1;P2;durP2;ratioP2
78873;SDS011;68250;43.514;1.494;2023-08-01T00:02:06;7.60;;;2.50;;
78873;SDS011;68250;43.514;1.494;2023-08-01T00:04:32;5.07;;;2.38;;
78873;SDS011;68250;43.514;1.494;2023-08-01T00:06:57;7.17;;;2.67;;
78873;SDS011;68250;43.514;1.494;2023-08-01T00:09:23;5.88;;;2.20;;
78873;SDS011;68250;43.514;1.494;2023-08-01T00:11:48;5.87;;;2.30;;
78873;SDS011;68250;43.514;1.494;2023-08-01T00:14:14;6.38;;;2.50;;
78873;SDS011;68250;43.514;1.494;2023-08-01T00:16:40;7.40;;;2.40;;
78873;SDS011;68250;43.514;1.494;2023-08-01T00:19:06;5.95;;;2.50;;
78873;SDS011;68250;43.514;1.494;2023-08-01T00:21:31;7.13;;;2.30;;
78873;SDS011;68250;43.514;1.494;2023-08-01T00:23:57;7.43;;;2.33;;
78873;SDS011;68250;43.514;1.494;2023-08-01T00:26:23;5.57;;;2.07;;
78873;SDS011;68250;43.514;1.494;2023-08-01T00:28:48;6.40;;;2.33;;
78873;SDS011;68250;43.514;1.494;2023-08-01T00:31:14;6.87;;;2.67;;
78873;SDS011;68250;43.514;1.494;2023-08-01T00:33:40;5.88;;;2.50;;
78873;SDS011;68250;43.514;1.494;2023-08-01T00:36:05;7.00;;;2.70;;
78873;SDS011;68250;43.514;1.494;2023-08-01T00:38:34;5.43;;;2.45;;
78873;SDS011;68250;43.514;1.494;2023-08-01T00:41:01;6.60;;;3.20;;
78873;SDS011;68250;43.514;1.494;2023-08-01T00:43:26;7.23;;;2.80;;
78873;SDS011;68250;43.514;1.494;2023-08-01T00:45:52;7.00;;;3.05;;
78873;SDS011;68250;43.514;1.494;2023-08-01T00:48:21;9.05;;;2.78;;
78873;SDS011;68250;43.514;1.494;2023-08-01T00:50:47;6.67;;;2.60;;
78873;SDS011;68250;43.514;1.494;2023-08-01T00:53:12;5.88;;;2.70;;
78873;SDS011;68250;43.514;1.494;2023-08-01T00:55:38;5.37;;;2.53;;
78873;SDS011;68250;43.514;1.494;2023-08-01T00:58:04;6.18;;;2.95;;
78873;SDS011;68250;43.514;1.494;2023-08-01T01:00:30;7.43;;;3.00;;
78873;SDS011;68250;43.514;1.494;2023-08-01T01:03:14;7.13;;;2.90;;
78873;SDS011;68250;43.514;1.494;2023-08-01T01:05:41;4.97;;;2.65;;
78873;SDS011;68250;43.514;1.494;2023-08-01T01:08:09;6.43;;;2.78;;
78873;SDS011;68250;43.514;1.494;2023-08-01T01:10:35;5.70;;;2.90;;
78873;SDS011;68250;43.514;1.494;2023-08-01T01:13:01;7.50;;;2.83;;
78873;SDS011;68250;43.514;1.494;2023-08-01T01:15:26;7.28;;;3.30;;
78873;SDS011;68250;43.514;1.494;2023-08-01T01:17:52;7.93;;;3.50;;
78873;SDS011;68250;43.514;1.494;2023-08-01T01:20:22;7.20;;;3.00;;
78873;SDS011;68250;43.514;1.494;2023-08-01T01:22:49;6.65;;;2.75;;
78873;SDS011;68250;43.514;1.494;2023-08-01T01:25:17;6.53;;;3.30;;
78873;SDS011;68250;43.514;1.494;2023-08-01T01:27:44;7.50;;;3.28;;
78873;SDS011;68250;43.514;1.494;2023-08-01T01:30:10;9.98;;;3.72;;
78873;SDS011;68250;43.514;1.494;2023-08-01T01:32:36;6.72;;;3.70;;
78873;SDS011;68250;43.514;1.494;2023-08-01T01:35:03;8.20;;;3.73;;
78873;SDS011;68250;43.514;1.494;2023-08-01T01:37:29;8.10;;;3.83;;
78873;SDS011;68250;43.514;1.494;2023-08-01T01:39:55;9.73;;;4.20;;
78873;SDS011;68250;43.514;1.494;2023-08-01T01:42:20;7.70;;;3.97;;
78873;SDS011;68250;43.514;1.494;2023-08-01T01:44:46;8.77;;;3.90;;
78873;SDS011;68250;43.514;1.494;2023-08-01T01:47:12;7.87;;;3.70;;
78873;SDS011;68250;43.514;1.494;2023-08-01T01:49:37;6.75;;;3.80;;
78873;SDS011;68250;43.514;1.494;2023-08-01T01:52:03;6.87;;;3.43;;
78873;SDS011;68250;43.514;1.494;2023-08-01T01:54:29;8.80;;;3.72;;
78873;SDS011;68250;43.514;1.494;2023-08-01T01:56:55;6.60;;;3.80;;
78873;SDS011;68250;43.514;1.494;2023-08-01T01:59:20;6.65;;;3.58;;
78873;SDS011;68250;43.514;1.494;2023-08-01T02:01:46;9.13;;;3.80;;
78873;SDS011;68250;43.514;1.494;2023-08-01T02:04:12;8.07;;;3.92;;
78873;SDS011;68250;43.514;1.494;2023-08-01T02:06:37;10.37;;;3.30;;
78873;SDS011;68250;43.514;1.494;2023-08-01T02:09:03;8.60;;;3.77;;
78873;SDS011;68250;43.514;1.494;2023-08-01T02:11:29;8.20;;;3.78;;
78873;SDS011;68250;43.514;1.494;2023-08-01T02:13:55;7.20;;;3.50;;
78873;SDS011;68250;43.514;1.494;2023-08-01T02:16:21;8.25;;;3.90;;
78873;SDS011;68250;43.514;1.494;2023-08-01T02:18:47;7.43;;;3.40;;
78873;SDS011;68250;43.514;1.494;2023-08-01T02:21:12;7.07;;;3.72;;
78873;SDS011;68250;43.514;1.494;2023-08-01T02:23:38;7.57;;;3.63;;
78873;SDS011;68250;43.514;1.494;2023-08-01T02:26:04;10.00;;;3.83;;
78873;SDS011;68250;43.514;1.494;2023-08-01T02:28:29;9.30;;;3.67;;
78873;SDS011;68250;43.514;1.494;2023-08-01T02:30:55;6.53;;;3.33;;
78873;SDS011;68250;43.514;1.494;2023-08-01T02:33:21;6.57;;;3.50;;
78873;SDS011;68250;43.514;1.494;2023-08-01T02:35:46;6.17;;;3.60;;
78873;SDS011;68250;43.514;1.494;2023-08-01T02:38:12;7.15;;;3.60;;
78873;SDS011;68250;43.514;1.494;2023-08-01T02:40:38;6.85;;;3.70;;
78873;SDS011;68250;43.514;1.494;2023-08-01T02:43:04;10.20;;;3.60;;
78873;SDS011;68250;43.514;1.494;2023-08-01T02:45:29;6.80;;;3.67;;
78873;SDS011;68250;43.514;1.494;2023-08-01T02:47:55;7.57;;;3.85;;
78873;SDS011;68250;43.514;1.494;2023-08-01T02:50:21;7.17;;;4.00;;
78873;SDS011;68250;43.514;1.494;2023-08-01T02:52:46;8.30;;;3.83;;
78873;SDS011;68250;43.514;1.494;2023-08-01T02:55:12;9.10;;;4.33;;
78873;SDS011;68250;43.514;1.494;2023-08-01T02:57:38;7.50;;;3.78;;
78873;SDS011;68250;43.514;1.494;2023-08-01T03:00:03;8.47;;;3.70;;
78873;SDS011;68250;43.514;1.494;2023-08-01T03:02:30;8.13;;;4.10;;
78873;SDS011;68250;43.514;1.494;2023-08-01T03:04:57;7.60;;;4.32;;
78873;SDS011;68250;43.514;1.494;2023-08-01T03:07:22;9.07;;;4.20;;
78873;SDS011;68250;43.514;1.494;2023-08-01T03:09:48;7.47;;;4.00;;
78873;SDS011;68250;43.514;1.494;2023-08-01T03:12:14;6.70;;;3.77;;
78873;SDS011;68250;43.514;1.494;2023-08-01T03:14:39;8.90;;;4.13;;
78873;SDS011;68250;43.514;1.494;2023-08-01T03:17:08;8.18;;;4.25;;
78873;SDS011;68250;43.514;1.494;2023-08-01T03:19:34;6.67;;;4.30;;
78873;SDS011;68250;43.514;1.494;2023-08-01T03:22:00;7.45;;;4.28;;
78873;SDS011;68250;43.514;1.494;2023-08-01T03:24:26;8.37;;;4.40;;
78873;SDS011;68250;43.514;1.494;2023-08-01T03:26:51;7.55;;;4.25;;
78873;SDS011;68250;43.514;1.494;2023-08-01T03:29:17;7.63;;;4.43;;
78873;SDS011;68250;43.514;1.494;2023-08-01T03:31:43;9.98;;;4.13;;
78873;SDS011;68250;43.514;1.494;2023-08-01T03:34:08;7.40;;;4.40;;
78873;SDS011;68250;43.514;1.494;2023-08-01T03:36:34;8.70;;;4.80;;
78873;SDS011;68250;43.514;1.494;2023-08-01T03:39:00;7.80;;;4.18;;
78873;SDS011;68250;43.514;1.494;2023-08-01T03:41:26;6.80;;;4.10;;
78873;SDS011;68250;43.514;1.494;2023-08-01T03:43:52;8.43;;;4.40;;
78873;SDS011;68250;43.514;1.494;2023-08-01T03:46:18;7.80;;;4.37;;
78873;SDS011;68250;43.514;1.494;2023-08-01T03:48:43;8.30;;;4.63;;
78873;SDS011;68250;43.514;1.494;2023-08-01T03:51:09;7.43;;;4.55;;
78873;SDS011;68250;43.514;1.494;2023-08-01T03:53:34;10.37;;;4.17;;
78873;SDS011;68250;43.514;1.494;2023-08-01T03:56:01;9.15;;;4.75;;
78873;SDS011;68250;43.514;1.494;2023-08-01T03:58:27;9.17;;;4.13;;
78873;SDS011;68250;43.514;1.494;2023-08-01T04:00:52;9.17;;;4.93;;
78873;SDS011;68250;43.514;1.494;2023-08-01T04:03:18;8.52;;;4.88;;
78873;SDS011;68250;43.514;1.494;2023-08-01T04:05:44;8.23;;;4.40;;
78873;SDS011;68250;43.514;1.494;2023-08-01T04:08:10;8.73;;;4.70;;
78873;SDS011;68250;43.514;1.494;2023-08-01T04:10:35;8.47;;;4.10;;
78873;SDS011;68250;43.514;1.494;2023-08-01T04:13:01;7.47;;;4.10;;
78873;SDS011;68250;43.514;1.494;2023-08-01T04:15:26;8.15;;;4.65;;
78873;SDS011;68250;43.514;1.494;2023-08-01T04:17:52;7.87;;;4.40;;
78873;SDS011;68250;43.514;1.494;2023-08-01T04:20:18;9.50;;;4.53;;
78873;SDS011;68250;43.514;1.494;2023-08-01T04:22:43;9.50;;;4.47;;
78873;SDS011;68250;43.514;1.494;2023-08-01T04:25:09;10.38;;;4.88;;
78873;SDS011;68250;43.514;1.494;2023-08-01T04:27:35;9.57;;;4.50;;
78873;SDS011;68250;43.514;1.494;2023-08-01T04:30:00;9.00;;;4.70;;
78873;SDS011;68250;43.514;1.494;2023-08-01T04:32:26;9.20;;;4.80;;
78873;SDS011;68250;43.514;1.494;2023-08-01T04:34:52;12.10;;;4.40;;
78873;SDS011;68250;43.514;1.494;2023-08-01T04:37:17;10.05;;;4.20;;
78873;SDS011;68250;43.514;1.494;2023-08-01T04:39:45;9.20;;;4.38;;
78873;SDS011;68250;43.514;1.494;2023-08-01T04:42:11;9.40;;;4.37;;
78873;SDS011;68250;43.514;1.494;2023-08-01T04:44:37;7.53;;;4.55;;
78873;SDS011;68250;43.514;1.494;2023-08-01T04:47:02;9.33;;;4.00;;
78873;SDS011;68250;43.514;1.494;2023-08-01T04:49:28;9.00;;;4.13;;
78873;SDS011;68250;43.514;1.494;2023-08-01T04:51:55;7.97;;;4.23;;
78873;SDS011;68250;43.514;1.494;2023-08-01T04:54:21;8.57;;;4.43;;
78873;SDS011;68250;43.514;1.494;2023-08-01T04:56:46;6.60;;;3.87;;
78873;SDS011;68250;43.514;1.494;2023-08-01T04:59:12;9.80;;;4.68;;
78873;SDS011;68250;43.514;1.494;2023-08-01T05:01:38;7.27;;;4.13;;
78873;SDS011;68250;43.514;1.494;2023-08-01T05:04:03;9.23;;;4.40;;
78873;SDS011;68250;43.514;1.494;2023-08-01T05:06:29;8.57;;;4.37;;
78873;SDS011;68250;43.514;1.494;2023-08-01T05:08:54;8.33;;;4.43;;
78873;SDS011;68250;43.514;1.494;2023-08-01T05:11:20;9.05;;;4.55;;
78873;SDS011;68250;43.514;1.494;2023-08-01T05:13:46;9.70;;;4.87;;
78873;SDS011;68250;43.514;1.494;2023-08-01T05:16:12;7.72;;;4.55;;
78873;SDS011;68250;43.514;1.494;2023-08-01T05:18:38;11.90;;;5.18;;
78873;SDS011;68250;43.514;1.494;2023-08-01T05:21:03;7.50;;;4.10;;
78873;SDS011;68250;43.514;1.494;2023-08-01T05:23:29;8.93;;;4.60;;
78873;SDS011;68250;43.514;1.494;2023-08-01T05:25:55;7.33;;;4.17;;
78873;SDS011;68250;43.514;1.494;2023-08-01T05:28:20;9.02;;;4.65;;
78873;SDS011;68250;43.514;1.494;2023-08-01T05:30:46;10.63;;;4.87;;
78873;SDS011;68250;43.514;1.494;2023-08-01T05:33:12;8.45;;;4.65;;
78873;SDS011;68250;43.514;1.494;2023-08-01T05:35:38;8.20;;;4.80;;
78873;SDS011;68250;43.514;1.494;2023-08-01T05:38:03;8.38;;;4.65;;
78873;SDS011;68250;43.514;1.494;2023-08-01T05:40:29;6.87;;;4.53;;
78873;SDS011;68250;43.514;1.494;2023-08-01T05:42:54;8.30;;;4.50;;
78873;SDS011;68250;43.514;1.494;2023-08-01T05:45:20;10.32;;;4.93;;
78873;SDS011;68250;43.514;1.494;2023-08-01T05:47:46;6.73;;;4.23;;
78873;SDS011;68250;43.514;1.494;2023-08-01T05:50:11;8.48;;;4.57;;
78873;SDS011;68250;43.514;1.494;2023-08-01T05:52:37;7.37;;;4.50;;
78873;SDS011;68250;43.514;1.494;2023-08-01T05:55:03;9.35;;;4.28;;
78873;SDS011;68250;43.514;1.494;2023-08-01T05:57:29;8.50;;;4.40;;
78873;SDS011;68250;43.514;1.494;2023-08-01T05:59:55;9.18;;;4.22;;
78873;SDS011;68250;43.514;1.494;2023-08-01T06:02:20;8.88;;;4.13;;
78873;SDS011;68250;43.514;1.494;2023-08-01T06:04:46;7.03;;;3.87;;
78873;SDS011;68250;43.514;1.494;2023-08-01T06:07:12;8.57;;;4.10;;
78873;SDS011;68250;43.514;1.494;2023-08-01T06:09:37;7.80;;;4.00;;
78873;SDS011;68250;43.514;1.494;2023-08-01T06:12:03;10.40;;;4.13;;
78873;SDS011;68250;43.514;1.494;2023-08-01T06:14:29;8.45;;;4.20;;
78873;SDS011;68250;43.514;1.494;2023-08-01T06:16:55;11.50;;;4.00;;
78873;SDS011;68250;43.514;1.494;2023-08-01T06:19:20;7.57;;;4.10;;
78873;SDS011;68250;43.514;1.494;2023-08-01T06:21:46;7.10;;;4.20;;
78873;SDS011;68250;43.514;1.494;2023-08-01T06:24:12;9.80;;;3.75;;
78873;SDS011;68250;43.514;1.494;2023-08-01T06:26:37;8.50;;;3.93;;
78873;SDS011;68250;43.514;1.494;2023-08-01T06:29:03;7.93;;;3.85;;
78873;SDS011;68250;43.514;1.494;2023-08-01T06:31:28;7.73;;;3.80;;
78873;SDS011;68250;43.514;1.494;2023-08-01T06:33:54;8.27;;;4.05;;
78873;SDS011;68250;43.514;1.494;2023-08-01T06:36:20;6.80;;;3.77;;
78873;SDS011;68250;43.514;1.494;2023-08-01T06:38:46;9.95;;;3.80;;
78873;SDS011;68250;43.514;1.494;2023-08-01T06:41:11;8.27;;;3.90;;
78873;SDS011;68250;43.514;1.494;2023-08-01T06:43:37;8.68;;;4.00;;
78873;SDS011;68250;43.514;1.494;2023-08-01T06:46:03;8.00;;;4.10;;
78873;SDS011;68250;43.514;1.494;2023-08-01T06:48:30;8.80;;;3.80;;
78873;SDS011;68250;43.514;1.494;2023-08-01T06:51:01;8.50;;;4.00;;
78873;SDS011;68250;43.514;1.494;2023-08-01T06:53:30;7.57;;;3.88;;
78873;SDS011;68250;43.514;1.494;2023-08-01T06:55:55;7.40;;;3.87;;
78873;SDS011;68250;43.514;1.494;2023-08-01T06:58:21;11.05;;;3.67;;
78873;SDS011;68250;43.514;1.494;2023-08-01T07:00:47;8.47;;;3.70;;
78873;SDS011;68250;43.514;1.494;2023-08-01T07:03:12;7.30;;;3.53;;
78873;SDS011;68250;43.514;1.494;2023-08-01T07:05:38;7.27;;;3.47;;
78873;SDS011;68250;43.514;1.494;2023-08-01T07:08:04;7.87;;;3.50;;
78873;SDS011;68250;43.514;1.494;2023-08-01T07:10:29;6.65;;;3.55;;
78873;SDS011;68250;43.514;1.494;2023-08-01T07:12:55;8.70;;;3.50;;
78873;SDS011;68250;43.514;1.494;2023-08-01T07:15:21;8.07;;;3.47;;
78873;SDS011;68250;43.514;1.494;2023-08-01T07:17:47;6.60;;;3.20;;
78873;SDS011;68250;43.514;1.494;2023-08-01T07:20:12;6.97;;;3.42;;
78873;SDS011;68250;43.514;1.494;2023-08-01T07:22:38;9.07;;;3.10;;
78873;SDS011;68250;43.514;1.494;2023-08-01T07:25:04;6.65;;;3.15;;
78873;SDS011;68250;43.514;1.494;2023-08-01T07:27:30;8.20;;;3.45;;
78873;SDS011;68250;43.514;1.494;2023-08-01T07:29:56;10.27;;;3.40;;
78873;SDS011;68250;43.514;1.494;2023-08-01T07:32:21;10.55;;;3.25;;
78873;SDS011;68250;43.514;1.494;2023-08-01T07:34:47;7.10;;;3.13;;
78873;SDS011;68250;43.514;1.494;2023-08-01T07:37:13;7.20;;;3.30;;
78873;SDS011;68250;43.514;1.494;2023-08-01T07:39:38;9.45;;;3.10;;
78873;SDS011;68250;43.514;1.494;2023-08-01T07:42:04;7.63;;;2.77;;
78873;SDS011;68250;43.514;1.494;2023-08-01T07:44:30;6.35;;;2.95;;
78873;SDS011;68250;43.514;1.494;2023-08-01T07:46:56;6.40;;;3.05;;
78873;SDS011;68250;43.514;1.494;2023-08-01T07:49:22;6.40;;;2.73;;
78873;SDS011;68250;43.514;1.494;2023-08-01T07:51:48;6.30;;;3.30;;
78873;SDS011;68250;43.514;1.494;2023-08-01T07:54:13;7.20;;;2.93;;
78873;SDS011;68250;43.514;1.494;2023-08-01T07:56:39;7.13;;;3.45;;
78873;SDS011;68250;43.514;1.494;2023-08-01T07:59:04;7.20;;;3.40;;
78873;SDS011;68250;43.514;1.494;2023-08-01T08:01:30;7.50;;;3.30;;
78873;SDS011;68250;43.514;1.494;2023-08-01T08:03:56;8.52;;;3.40;;
78873;SDS011;68250;43.514;1.494;2023-08-01T08:06:21;7.37;;;3.00;;
78873;SDS011;68250;43.514;1.494;2023-08-01T08:08:48;7.13;;;3.45;;
78873;SDS011;68250;43.514;1.494;2023-08-01T08:11:15;7.00;;;3.30;;
78873;SDS011;68250;43.514;1.494;2023-08-01T08:13:41;10.45;;;3.30;;
78873;SDS011;68250;43.514;1.494;2023-08-01T08:16:07;9.83;;;3.77;;
78873;SDS011;68250;43.514;1.494;2023-08-01T08:18:32;10.85;;;4.00;;
78873;SDS011;68250;43.514;1.494;2023-08-01T08:20:58;7.57;;;3.37;;
78873;SDS011;68250;43.514;1.494;2023-08-01T08:23:24;9.80;;;3.50;;
78873;SDS011;68250;43.514;1.494;2023-08-01T08:25:49;9.13;;;3.50;;
78873;SDS011;68250;43.514;1.494;2023-08-01T08:28:16;7.38;;;3.63;;
78873;SDS011;68250;43.514;1.494;2023-08-01T08:30:52;7.15;;;3.15;;
78873;SDS011;68250;43.514;1.494;2023-08-01T08:33:20;7.70;;;3.37;;
78873;SDS011;68250;43.514;1.494;2023-08-01T08:35:46;6.65;;;3.05;;
78873;SDS011;68250;43.514;1.494;2023-08-01T08:38:12;8.82;;;3.28;;
78873;SDS011;68250;43.514;1.494;2023-08-01T08:40:40;10.47;;;3.50;;
78873;SDS011;68250;43.514;1.494;2023-08-01T08:43:06;12.43;;;3.50;;
78873;SDS011;68250;43.514;1.494;2023-08-01T08:45:33;9.60;;;3.47;;
78873;SDS011;68250;43.514;1.494;2023-08-01T08:48:00;6.20;;;3.33;;
78873;SDS011;68250;43.514;1.494;2023-08-01T08:50:29;10.05;;;3.40;;
78873;SDS011;68250;43.514;1.494;2023-08-01T08:52:56;6.35;;;3.03;;
78873;SDS011;68250;43.514;1.494;2023-08-01T08:55:22;6.20;;;2.60;;
78873;SDS011;68250;43.514;1.494;2023-08-01T08:57:49;6.60;;;2.90;;
78873;SDS011;68250;43.514;1.494;2023-08-01T09:00:17;6.45;;;2.80;;
78873;SDS011;68250;43.514;1.494;2023-08-01T09:02:44;6.45;;;2.75;;
78873;SDS011;68250;43.514;1.494;2023-08-01T09:05:09;6.80;;;2.80;;
78873;SDS011;68250;43.514;1.494;2023-08-01T09:07:36;7.03;;;3.03;;
78873;SDS011;68250;43.514;1.494;2023-08-01T09:10:05;6.20;;;2.80;;
78873;SDS011;68250;43.514;1.494;2023-08-01T09:12:33;6.03;;;2.60;;
78873;SDS011;68250;43.514;1.494;2023-08-01T09:15:00;5.90;;;2.70;;
78873;SDS011;68250;43.514;1.494;2023-08-01T09:17:26;6.65;;;2.83;;
78873;SDS011;68250;43.514;1.494;2023-08-01T09:19:55;8.27;;;2.50;;
78873;SDS011;68250;43.514;1.494;2023-08-01T09:22:22;6.87;;;2.67;;
78873;SDS011;68250;43.514;1.494;2023-08-01T09:24:51;10.05;;;3.70;;
78873;SDS011;68250;43.514;1.494;2023-08-01T09:27:18;10.68;;;3.40;;
78873;SDS011;68250;43.514;1.494;2023-08-01T09:29:46;6.03;;;2.30;;
78873;SDS011;68250;43.514;1.494;2023-08-01T09:32:14;6.88;;;2.83;;
78873;SDS011;68250;43.514;1.494;2023-08-01T09:34:41;9.40;;;2.60;;
78873;SDS011;68250;43.514;1.494;2023-08-01T09:37:07;5.70;;;2.73;;
78873;SDS011;68250;43.514;1.494;2023-08-01T09:39:33;5.15;;;2.50;;
78873;SDS011;68250;43.514;1.494;2023-08-01T09:41:59;7.17;;;2.33;;
78873;SDS011;68250;43.514;1.494;2023-08-01T09:44:27;11.82;;;3.80;;
78873;SDS011;68250;43.514;1.494;2023-08-01T09:47:00;6.63;;;2.47;;
78873;SDS011;68250;43.514;1.494;2023-08-01T09:49:27;15.15;;;3.67;;
78873;SDS011;68250;43.514;1.494;2023-08-01T09:51:53;10.15;;;3.10;;
78873;SDS011;68250;43.514;1.494;2023-08-01T09:54:19;8.97;;;2.57;;
78873;SDS011;68250;43.514;1.494;2023-08-01T09:56:47;32.92;;;6.85;;
78873;SDS011;68250;43.514;1.494;2023-08-01T09:59:24;11.75;;;3.30;;
78873;SDS011;68250;43.514;1.494;2023-08-01T10:01:52;9.68;;;2.80;;
78873;SDS011;68250;43.514;1.494;2023-08-01T10:04:26;4.50;;;1.80;;
78873;SDS011;68250;43.514;1.494;2023-08-01T10:06:59;5.88;;;2.00;;
78873;SDS011;68250;43.514;1.494;2023-08-01T10:09:29;5.20;;;1.85;;
78873;SDS011;68250;43.514;1.494;2023-08-01T10:11:57;7.20;;;2.20;;
78873;SDS011;68250;43.514;1.494;2023-08-01T10:14:23;5.68;;;1.90;;
78873;SDS011;68250;43.514;1.494;2023-08-01T10:16:49;4.27;;;1.80;;
78873;SDS011;68250;43.514;1.494;2023-08-01T10:19:15;5.40;;;1.40;;
78873;SDS011;68250;43.514;1.494;2023-08-01T10:21:41;5.38;;;1.70;;
78873;SDS011;68250;43.514;1.494;2023-08-01T10:24:08;4.63;;;1.50;;
78873;SDS011;68250;43.514;1.494;2023-08-01T10:26:34;3.53;;;1.30;;
78873;SDS011;68250;43.514;1.494;2023-08-01T10:29:00;4.70;;;1.42;;
78873;SDS011;68250;43.514;1.494;2023-08-01T10:31:27;3.45;;;1.30;;
78873;SDS011;68250;43.514;1.494;2023-08-01T10:34:02;6.60;;;1.40;;
78873;SDS011;68250;43.514;1.494;2023-08-01T10:36:32;4.43;;;1.58;;
78873;SDS011;68250;43.514;1.494;2023-08-01T10:38:59;4.72;;;1.40;;
78873;SDS011;68250;43.514;1.494;2023-08-01T10:41:29;4.72;;;1.27;;
78873;SDS011;68250;43.514;1.494;2023-08-01T10:46:51;5.23;;;1.50;;
78873;SDS011;68250;43.514;1.494;2023-08-01T10:49:19;3.75;;;1.55;;
78873;SDS011;68250;43.514;1.494;2023-08-01T10:51:46;6.70;;;1.50;;
78873;SDS011;68250;43.514;1.494;2023-08-01T10:56:46;5.90;;;1.70;;
78873;SDS011;68250;43.514;1.494;2023-08-01T10:59:12;4.03;;;1.53;;
78873;SDS011;68250;43.514;1.494;2023-08-01T11:01:48;4.13;;;1.60;;
78873;SDS011;68250;43.514;1.494;2023-08-01T11:04:20;9.35;;;1.70;;
78873;SDS011;68250;43.514;1.494;2023-08-01T11:06:51;3.63;;;1.48;;
78873;SDS011;68250;43.514;1.494;2023-08-01T11:09:23;5.20;;;1.80;;
78873;SDS011;68250;43.514;1.494;2023-08-01T11:11:52;3.67;;;1.52;;
78873;SDS011;68250;43.514;1.494;2023-08-01T11:14:21;5.18;;;1.88;;
78873;SDS011;68250;43.514;1.494;2023-08-01T11:16:48;4.03;;;1.52;;
78873;SDS011;68250;43.514;1.494;2023-08-01T11:19:18;5.65;;;1.30;;
78873;SDS011;68250;43.514;1.494;2023-08-01T11:21:48;4.23;;;1.57;;
78873;SDS011;68250;43.514;1.494;2023-08-01T11:24:15;4.63;;;1.38;;
78873;SDS011;68250;43.514;1.494;2023-08-01T11:26:42;5.05;;;1.30;;
78873;SDS011;68250;43.514;1.494;2023-08-01T11:29:08;3.28;;;1.20;;
78873;SDS011;68250;43.514;1.494;2023-08-01T11:31:35;5.03;;;1.45;;
78873;SDS011;68250;43.514;1.494;2023-08-01T11:34:00;4.73;;;1.50;;
78873;SDS011;68250;43.514;1.494;2023-08-01T11:36:27;3.92;;;1.63;;
78873;SDS011;68250;43.514;1.494;2023-08-01T11:38:53;11.30;;;1.65;;
78873;SDS011;68250;43.514;1.494;2023-08-01T11:41:24;4.27;;;1.70;;
78873;SDS011;68250;43.514;1.494;2023-08-01T11:43:52;8.40;;;1.50;;
78873;SDS011;68250;43.514;1.494;2023-08-01T11:46:20;8.57;;;1.80;;
78873;SDS011;68250;43.514;1.494;2023-08-01T11:48:47;5.57;;;1.70;;
78873;SDS011;68250;43.514;1.494;2023-08-01T11:51:15;6.93;;;1.42;;
78873;SDS011;68250;43.514;1.494;2023-08-01T11:53:40;3.70;;;1.80;;
78873;SDS011;68250;43.514;1.494;2023-08-01T11:56:06;6.05;;;1.70;;
78873;SDS011;68250;43.514;1.494;2023-08-01T11:58:33;3.97;;;1.50;;
78873;SDS011;68250;43.514;1.494;2023-08-01T12:01:08;6.50;;;1.70;;
78873;SDS011;68250;43.514;1.494;2023-08-01T12:06:19;5.22;;;1.60;;
78873;SDS011;68250;43.514;1.494;2023-08-01T12:08:47;5.88;;;1.40;;
78873;SDS011;68250;43.514;1.494;2023-08-01T12:11:21;5.15;;;1.60;;
78873;SDS011;68250;43.514;1.494;2023-08-01T12:16:39;4.13;;;1.42;;
78873;SDS011;68250;43.514;1.494;2023-08-01T12:19:07;3.63;;;1.50;;
78873;SDS011;68250;43.514;1.494;2023-08-01T12:21:33;4.22;;;1.80;;
78873;SDS011;68250;43.514;1.494;2023-08-01T12:24:00;4.95;;;1.75;;
78873;SDS011;68250;43.514;1.494;2023-08-01T12:26:25;5.87;;;1.60;;
78873;SDS011;68250;43.514;1.494;2023-08-01T12:28:51;4.10;;;1.70;;
78873;SDS011;68250;43.514;1.494;2023-08-01T12:31:17;3.70;;;1.43;;
78873;SDS011;68250;43.514;1.494;2023-08-01T12:33:46;3.50;;;1.48;;
78873;SDS011;68250;43.514;1.494;2023-08-01T12:36:15;3.07;;;1.40;;
78873;SDS011;68250;43.514;1.494;2023-08-01T12:38:41;4.37;;;1.40;;
78873;SDS011;68250;43.514;1.494;2023-08-01T12:41:06;4.00;;;1.05;;
78873;SDS011;68250;43.514;1.494;2023-08-01T12:43:32;3.08;;;1.10;;
78873;SDS011;68250;43.514;1.494;2023-08-01T12:45:58;3.47;;;1.30;;
78873;SDS011;68250;43.514;1.494;2023-08-01T12:48:24;4.63;;;1.00;;
78873;SDS011;68250;43.514;1.494;2023-08-01T12:50:51;3.72;;;1.00;;
78873;SDS011;68250;43.514;1.494;2023-08-01T12:53:16;3.37;;;1.00;;
78873;SDS011;68250;43.514;1.494;2023-08-01T12:55:46;3.85;;;0.90;;
78873;SDS011;68250;43.514;1.494;2023-08-01T12:58:12;3.35;;;0.73;;
78873;SDS011;68250;43.514;1.494;2023-08-01T13:00:39;3.40;;;0.80;;
78873;SDS011;68250;43.514;1.494;2023-08-01T13:03:05;2.78;;;0.80;;
78873;SDS011;68250;43.514;1.494;2023-08-01T13:05:38;2.92;;;0.70;;
78873;SDS011;68250;43.514;1.494;2023-08-01T13:08:05;2.78;;;0.98;;
78873;SDS011;68250;43.514;1.494;2023-08-01T13:10:31;3.13;;;0.90;;
78873;SDS011;68250;43.514;1.494;2023-08-01T13:12:58;3.33;;;1.30;;
78873;SDS011;68250;43.514;1.494;2023-08-01T13:15:24;4.28;;;1.30;;
78873;SDS011;68250;43.514;1.494;2023-08-01T13:17:50;3.00;;;1.10;;
78873;SDS011;68250;43.514;1.494;2023-08-01T13:20:15;3.27;;;1.20;;
78873;SDS011;68250;43.514;1.494;2023-08-01T13:22:42;3.38;;;1.15;;
78873;SDS011;68250;43.514;1.494;2023-08-01T13:25:08;2.95;;;1.13;;
78873;SDS011;68250;43.514;1.494;2023-08-01T13:27:34;2.80;;;1.13;;
78873;SDS011;68250;43.514;1.494;2023-08-01T13:30:01;3.50;;;1.10;;
78873;SDS011;68250;43.514;1.494;2023-08-01T13:32:27;4.37;;;1.10;;
78873;SDS011;68250;43.514;1.494;2023-08-01T13:34:53;3.90;;;1.50;;
78873;SDS011;68250;43.514;1.494;2023-08-01T13:37:18;3.10;;;1.10;;
78873;SDS011;68250;43.514;1.494;2023-08-01T13:39:44;3.42;;;0.98;;
78873;SDS011;68250;43.514;1.494;2023-08-01T13:42:11;3.10;;;0.90;;
78873;SDS011;68250;43.514;1.494;2023-08-01T13:44:37;2.40;;;0.70;;
78873;SDS011;68250;43.514;1.494;2023-08-01T13:47:03;3.13;;;0.80;;
78873;SDS011;68250;43.514;1.494;2023-08-01T13:49:29;7.70;;;0.88;;
78873;SDS011;68250;43.514;1.494;2023-08-01T13:51:55;2.63;;;0.70;;
78873;SDS011;68250;43.514;1.494;2023-08-01T13:54:21;3.90;;;0.80;;
78873;SDS011;68250;43.514;1.494;2023-08-01T13:56:46;2.70;;;1.00;;
78873;SDS011;68250;43.514;1.494;2023-08-01T13:59:13;2.50;;;1.00;;
78873;SDS011;68250;43.514;1.494;2023-08-01T14:01:39;2.78;;;0.93;;
78873;SDS011;68250;43.514;1.494;2023-08-01T14:04:04;2.60;;;0.60;;
78873;SDS011;68250;43.514;1.494;2023-08-01T14:06:30;2.53;;;0.82;;
78873;SDS011;68250;43.514;1.494;2023-08-01T14:08:56;3.90;;;0.83;;
78873;SDS011;68250;43.514;1.494;2023-08-01T14:11:21;2.92;;;1.00;;
78873;SDS011;68250;43.514;1.494;2023-08-01T14:13:48;3.03;;;0.90;;
78873;SDS011;68250;43.514;1.494;2023-08-01T14:16:14;4.03;;;1.40;;
78873;SDS011;68250;43.514;1.494;2023-08-01T14:18:41;3.83;;;1.10;;
78873;SDS011;68250;43.514;1.494;2023-08-01T14:21:07;3.78;;;1.30;;
78873;SDS011;68250;43.514;1.494;2023-08-01T14:23:33;3.60;;;1.07;;
78873;SDS011;68250;43.514;1.494;2023-08-01T14:25:59;4.87;;;1.40;;
78873;SDS011;68250;43.514;1.494;2023-08-01T14:28:24;3.70;;;1.47;;
78873;SDS011;68250;43.514;1.494;2023-08-01T14:30:50;3.87;;;1.50;;
78873;SDS011;68250;43.514;1.494;2023-08-01T14:33:16;3.05;;;1.50;;
78873;SDS011;68250;43.514;1.494;2023-08-01T14:35:42;3.67;;;1.52;;
78873;SDS011;68250;43.514;1.494;2023-08-01T14:38:07;4.00;;;1.40;;
78873;SDS011;68250;43.514;1.494;2023-08-01T14:40:34;3.95;;;1.50;;
78873;SDS011;68250;43.514;1.494;2023-08-01T14:43:00;3.57;;;1.50;;
78873;SDS011;68250;43.514;1.494;2023-08-01T14:45:26;3.20;;;1.40;;
78873;SDS011;68250;43.514;1.494;2023-08-01T14:47:52;3.60;;;1.77;;
78873;SDS011;68250;43.514;1.494;2023-08-01T14:50:18;7.28;;;1.67;;
78873;SDS011;68250;43.514;1.494;2023-08-01T14:52:44;6.43;;;1.53;;